sensor_id;sensor_type;location;lat;lon;timestamp;P1;durP1;ratioP1;P2;durP2;ratioP2
38222;SDS011;24024;51.186;6.458;2023-08-17T00:00:12;7.38;;;4.95;;
38222;SDS011;24024;51.186;6.458;2023-08-17T00:02:42;9.13;;;5.10;;
38222;SDS011;24024;51.186;6.458;2023-08-17T00:05:09;9.27;;;5.75;;
38222;SDS011;24024;51.186;6.458;2023-08-17T00:07:36;10.02;;;5.22;;
38222;SDS011;24024;51.186;6.458;2023-08-17T00:10:04;9.43;;;5.93;;
38222;SDS011;24024;51.186;6.458;2023-08-17T00:12:31;7.95;;;4.93;;
38222;SDS011;24024;51.186;6.458;2023-08-17T00:15:00;7.82;;;5.50;;
38222;SDS011;24024;51.186;6.458;2023-08-17T00:17:27;8.30;;;5.10;;
38222;SDS011;24024;51.186;6.458;2023-08-17T00:19:54;8.10;;;6.03;;
38222;SDS011;24024;51.186;6.458;2023-08-17T00:22:25;11.70;;;6.13;;
38222;SDS011;24024;51.186;6.458;2023-08-17T00:24:55;10.30;;;6.28;;
38222;SDS011;24024;51.186;6.458;2023-08-17T00:27:21;12.30;;;6.53;;
38222;SDS011;24024;51.186;6.458;2023-08-17T00:29:49;9.32;;;6.47;;
38222;SDS011;24024;51.186;6.458;2023-08-17T00:32:16;10.15;;;6.90;;
38222;SDS011;24024;51.186;6.458;2023-08-17T00:34:46;10.50;;;6.22;;
38222;SDS011;24024;51.186;6.458;2023-08-17T00:37:12;9.38;;;6.30;;
38222;SDS011;24024;51.186;6.458;2023-08-17T00:39:39;10.13;;;5.95;;
38222;SDS011;24024;51.186;6.458;2023-08-17T00:42:08;11.02;;;6.03;;
38222;SDS011;24024;51.186;6.458;2023-08-17T00:44:36;10.10;;;6.30;;
38222;SDS011;24024;51.186;6.458;2023-08-17T00:47:05;9.45;;;6.15;;
38222;SDS011;24024;51.186;6.458;2023-08-17T00:49:32;9.88;;;5.85;;
38222;SDS011;24024;51.186;6.458;2023-08-17T00:52:00;8.10;;;5.70;;
38222;SDS011;24024;51.186;6.458;2023-08-17T00:54:31;8.38;;;5.43;;
38222;SDS011;24024;51.186;6.458;2023-08-17T00:56:58;8.65;;;5.78;;
38222;SDS011;24024;51.186;6.458;2023-08-17T00:59:26;9.50;;;6.03;;
38222;SDS011;24024;51.186;6.458;2023-08-17T01:01:54;8.95;;;5.82;;
38222;SDS011;24024;51.186;6.458;2023-08-17T01:04:24;7.80;;;5.47;;
38222;SDS011;24024;51.186;6.458;2023-08-17T01:06:50;9.85;;;5.68;;
38222;SDS011;24024;51.186;6.458;2023-08-17T01:09:17;9.57;;;6.07;;
38222;SDS011;24024;51.186;6.458;2023-08-17T01:12:00;9.57;;;6.20;;
38222;SDS011;24024;51.186;6.458;2023-08-17T01:14:46;13.88;;;7.00;;
38222;SDS011;24024;51.186;6.458;2023-08-17T01:17:23;9.05;;;6.68;;
38222;SDS011;24024;51.186;6.458;2023-08-17T01:20:11;12.60;;;7.10;;
38222;SDS011;24024;51.186;6.458;2023-08-17T01:22:41;13.73;;;6.70;;
38222;SDS011;24024;51.186;6.458;2023-08-17T01:25:11;11.80;;;6.80;;
38222;SDS011;24024;51.186;6.458;2023-08-17T01:27:41;9.73;;;6.47;;
38222;SDS011;24024;51.186;6.458;2023-08-17T01:30:14;10.35;;;6.50;;
38222;SDS011;24024;51.186;6.458;2023-08-17T01:35:23;10.02;;;7.00;;
38222;SDS011;24024;51.186;6.458;2023-08-17T01:37:56;9.80;;;6.63;;
38222;SDS011;24024;51.186;6.458;2023-08-17T01:40:27;10.57;;;6.97;;
38222;SDS011;24024;51.186;6.458;2023-08-17T01:42:55;10.45;;;6.15;;
38222;SDS011;24024;51.186;6.458;2023-08-17T01:45:22;9.95;;;6.47;;
38222;SDS011;24024;51.186;6.458;2023-08-17T01:47:55;8.38;;;6.30;;
38222;SDS011;24024;51.186;6.458;2023-08-17T01:50:22;9.63;;;5.88;;
38222;SDS011;24024;51.186;6.458;2023-08-17T01:52:49;11.35;;;6.10;;
38222;SDS011;24024;51.186;6.458;2023-08-17T01:55:20;8.93;;;5.85;;
38222;SDS011;24024;51.186;6.458;2023-08-17T01:57:50;11.00;;;6.25;;
38222;SDS011;24024;51.186;6.458;2023-08-17T02:00:19;10.30;;;5.70;;
38222;SDS011;24024;51.186;6.458;2023-08-17T02:02:46;10.52;;;5.70;;
38222;SDS011;24024;51.186;6.458;2023-08-17T02:05:15;9.77;;;5.88;;
38222;SDS011;24024;51.186;6.458;2023-08-17T02:07:44;9.63;;;5.15;;
38222;SDS011;24024;51.186;6.458;2023-08-17T02:10:10;8.95;;;5.88;;
38222;SDS011;24024;51.186;6.458;2023-08-17T02:12:40;9.70;;;5.60;;
38222;SDS011;24024;51.186;6.458;2023-08-17T02:15:06;8.00;;;5.30;;
38222;SDS011;24024;51.186;6.458;2023-08-17T02:17:36;8.68;;;5.20;;
38222;SDS011;24024;51.186;6.458;2023-08-17T02:20:05;8.48;;;5.40;;
38222;SDS011;24024;51.186;6.458;2023-08-17T02:22:35;7.85;;;5.05;;
38222;SDS011;24024;51.186;6.458;2023-08-17T02:25:04;9.95;;;5.20;;
38222;SDS011;24024;51.186;6.458;2023-08-17T02:27:33;9.38;;;5.00;;
38222;SDS011;24024;51.186;6.458;2023-08-17T02:30:00;8.77;;;4.78;;
38222;SDS011;24024;51.186;6.458;2023-08-17T02:32:27;8.65;;;4.82;;
38222;SDS011;24024;51.186;6.458;2023-08-17T02:34:54;11.90;;;5.20;;
38222;SDS011;24024;51.186;6.458;2023-08-17T02:37:23;10.07;;;5.05;;
38222;SDS011;24024;51.186;6.458;2023-08-17T02:39:53;9.57;;;4.70;;
38222;SDS011;24024;51.186;6.458;2023-08-17T02:42:19;8.13;;;5.07;;
38222;SDS011;24024;51.186;6.458;2023-08-17T02:44:49;9.68;;;5.20;;
38222;SDS011;24024;51.186;6.458;2023-08-17T02:47:15;8.68;;;5.30;;
38222;SDS011;24024;51.186;6.458;2023-08-17T02:49:42;9.68;;;5.38;;
38222;SDS011;24024;51.186;6.458;2023-08-17T02:52:09;11.48;;;5.10;;
38222;SDS011;24024;51.186;6.458;2023-08-17T02:54:35;9.52;;;5.25;;
38222;SDS011;24024;51.186;6.458;2023-08-17T02:57:02;8.32;;;5.32;;
38222;SDS011;24024;51.186;6.458;2023-08-17T02:59:29;11.27;;;5.25;;
38222;SDS011;24024;51.186;6.458;2023-08-17T03:01:56;8.75;;;5.30;;
38222;SDS011;24024;51.186;6.458;2023-08-17T03:04:25;11.55;;;5.72;;
38222;SDS011;24024;51.186;6.458;2023-08-17T03:06:51;8.82;;;5.70;;
38222;SDS011;24024;51.186;6.458;2023-08-17T03:09:18;10.95;;;5.75;;
38222;SDS011;24024;51.186;6.458;2023-08-17T03:11:47;9.88;;;6.00;;
38222;SDS011;24024;51.186;6.458;2023-08-17T03:14:19;10.77;;;5.82;;
38222;SDS011;24024;51.186;6.458;2023-08-17T03:16:46;10.40;;;6.60;;
38222;SDS011;24024;51.186;6.458;2023-08-17T03:19:13;12.20;;;6.97;;
38222;SDS011;24024;51.186;6.458;2023-08-17T03:21:44;10.50;;;6.30;;
38222;SDS011;24024;51.186;6.458;2023-08-17T03:24:11;12.18;;;6.95;;
38222;SDS011;24024;51.186;6.458;2023-08-17T03:26:37;12.32;;;6.85;;
38222;SDS011;24024;51.186;6.458;2023-08-17T03:29:05;12.10;;;7.15;;
38222;SDS011;24024;51.186;6.458;2023-08-17T03:31:36;13.45;;;7.18;;
38222;SDS011;24024;51.186;6.458;2023-08-17T03:34:03;11.45;;;6.75;;
38222;SDS011;24024;51.186;6.458;2023-08-17T03:36:31;11.52;;;7.60;;
38222;SDS011;24024;51.186;6.458;2023-08-17T03:38:58;10.20;;;7.28;;
38222;SDS011;24024;51.186;6.458;2023-08-17T03:41:25;14.90;;;7.30;;
38222;SDS011;24024;51.186;6.458;2023-08-17T03:43:52;10.95;;;7.30;;
38222;SDS011;24024;51.186;6.458;2023-08-17T03:46:18;13.25;;;7.85;;
38222;SDS011;24024;51.186;6.458;2023-08-17T03:48:45;14.73;;;7.70;;
38222;SDS011;24024;51.186;6.458;2023-08-17T03:51:14;12.38;;;7.40;;
38222;SDS011;24024;51.186;6.458;2023-08-17T03:53:41;9.82;;;6.20;;
38222;SDS011;24024;51.186;6.458;2023-08-17T03:56:07;11.65;;;6.78;;
38222;SDS011;24024;51.186;6.458;2023-08-17T03:58:34;11.68;;;7.40;;
38222;SDS011;24024;51.186;6.458;2023-08-17T04:01:05;9.55;;;5.90;;
38222;SDS011;24024;51.186;6.458;2023-08-17T04:03:37;8.52;;;6.07;;
38222;SDS011;24024;51.186;6.458;2023-08-17T04:06:04;9.15;;;5.30;;
38222;SDS011;24024;51.186;6.458;2023-08-17T04:08:32;9.02;;;4.90;;
38222;SDS011;24024;51.186;6.458;2023-08-17T04:10:59;9.98;;;5.63;;
38222;SDS011;24024;51.186;6.458;2023-08-17T04:13:28;10.57;;;5.00;;
38222;SDS011;24024;51.186;6.458;2023-08-17T04:15:57;10.52;;;5.35;;
38222;SDS011;24024;51.186;6.458;2023-08-17T04:18:24;8.27;;;4.85;;
38222;SDS011;24024;51.186;6.458;2023-08-17T04:20:51;10.60;;;5.57;;
38222;SDS011;24024;51.186;6.458;2023-08-17T04:23:20;10.40;;;5.15;;
38222;SDS011;24024;51.186;6.458;2023-08-17T04:25:50;10.02;;;5.25;;
38222;SDS011;24024;51.186;6.458;2023-08-17T04:28:18;10.63;;;5.53;;
38222;SDS011;24024;51.186;6.458;2023-08-17T04:30:45;9.27;;;5.43;;
38222;SDS011;24024;51.186;6.458;2023-08-17T04:33:12;12.90;;;5.55;;
38222;SDS011;24024;51.186;6.458;2023-08-17T04:35:39;8.85;;;5.70;;
38222;SDS011;24024;51.186;6.458;2023-08-17T04:38:06;11.55;;;6.15;;
38222;SDS011;24024;51.186;6.458;2023-08-17T04:40:37;8.20;;;5.50;;
38222;SDS011;24024;51.186;6.458;2023-08-17T04:43:04;10.63;;;5.45;;
38222;SDS011;24024;51.186;6.458;2023-08-17T04:45:34;8.88;;;5.90;;
38222;SDS011;24024;51.186;6.458;2023-08-17T04:48:03;11.60;;;5.80;;
38222;SDS011;24024;51.186;6.458;2023-08-17T04:50:30;9.75;;;6.05;;
38222;SDS011;24024;51.186;6.458;2023-08-17T04:52:57;11.00;;;5.97;;
38222;SDS011;24024;51.186;6.458;2023-08-17T04:55:24;11.45;;;5.70;;
38222;SDS011;24024;51.186;6.458;2023-08-17T04:57:51;10.93;;;6.00;;
38222;SDS011;24024;51.186;6.458;2023-08-17T05:00:22;10.18;;;5.43;;
38222;SDS011;24024;51.186;6.458;2023-08-17T05:02:54;10.20;;;5.95;;
38222;SDS011;24024;51.186;6.458;2023-08-17T05:05:22;11.70;;;6.30;;
38222;SDS011;24024;51.186;6.458;2023-08-17T05:07:49;11.52;;;6.28;;
38222;SDS011;24024;51.186;6.458;2023-08-17T05:10:18;12.38;;;7.20;;
38222;SDS011;24024;51.186;6.458;2023-08-17T05:12:47;9.43;;;5.40;;
38222;SDS011;24024;51.186;6.458;2023-08-17T05:15:16;10.07;;;5.50;;
38222;SDS011;24024;51.186;6.458;2023-08-17T05:17:43;9.52;;;5.88;;
38222;SDS011;24024;51.186;6.458;2023-08-17T05:20:10;10.10;;;6.00;;
38222;SDS011;24024;51.186;6.458;2023-08-17T05:22:41;9.77;;;5.25;;
38222;SDS011;24024;51.186;6.458;2023-08-17T05:25:08;8.68;;;5.53;;
38222;SDS011;24024;51.186;6.458;2023-08-17T05:27:35;10.52;;;5.55;;
38222;SDS011;24024;51.186;6.458;2023-08-17T05:30:02;8.60;;;5.82;;
38222;SDS011;24024;51.186;6.458;2023-08-17T05:32:29;10.50;;;5.70;;
38222;SDS011;24024;51.186;6.458;2023-08-17T05:34:58;11.23;;;6.03;;
38222;SDS011;24024;51.186;6.458;2023-08-17T05:37:27;9.02;;;6.00;;
38222;SDS011;24024;51.186;6.458;2023-08-17T05:39:53;12.05;;;6.45;;
38222;SDS011;24024;51.186;6.458;2023-08-17T05:42:22;10.02;;;6.00;;
38222;SDS011;24024;51.186;6.458;2023-08-17T05:44:49;11.93;;;6.05;;
38222;SDS011;24024;51.186;6.458;2023-08-17T05:47:16;13.18;;;6.30;;
38222;SDS011;24024;51.186;6.458;2023-08-17T05:49:45;10.38;;;5.97;;
38222;SDS011;24024;51.186;6.458;2023-08-17T05:52:12;11.73;;;6.95;;
38222;SDS011;24024;51.186;6.458;2023-08-17T05:54:39;11.65;;;7.07;;
38222;SDS011;24024;51.186;6.458;2023-08-17T05:57:08;11.10;;;7.32;;
38222;SDS011;24024;51.186;6.458;2023-08-17T05:59:36;11.65;;;7.50;;
38222;SDS011;24024;51.186;6.458;2023-08-17T06:02:03;14.52;;;8.15;;
38222;SDS011;24024;51.186;6.458;2023-08-17T06:04:29;14.43;;;8.23;;
38222;SDS011;24024;51.186;6.458;2023-08-17T06:06:56;12.75;;;7.75;;
38222;SDS011;24024;51.186;6.458;2023-08-17T06:09:25;10.40;;;7.97;;
38222;SDS011;24024;51.186;6.458;2023-08-17T06:11:52;13.52;;;8.80;;
38222;SDS011;24024;51.186;6.458;2023-08-17T06:14:18;14.63;;;8.43;;
38222;SDS011;24024;51.186;6.458;2023-08-17T06:16:45;13.52;;;8.70;;
38222;SDS011;24024;51.186;6.458;2023-08-17T06:19:14;15.10;;;9.27;;
38222;SDS011;24024;51.186;6.458;2023-08-17T06:21:41;15.63;;;9.77;;
38222;SDS011;24024;51.186;6.458;2023-08-17T06:24:08;14.80;;;9.80;;
38222;SDS011;24024;51.186;6.458;2023-08-17T06:26:35;18.23;;;10.95;;
38222;SDS011;24024;51.186;6.458;2023-08-17T06:29:02;12.57;;;10.07;;
38222;SDS011;24024;51.186;6.458;2023-08-17T06:31:30;14.48;;;10.10;;
38222;SDS011;24024;51.186;6.458;2023-08-17T06:34:00;15.75;;;10.05;;
38222;SDS011;24024;51.186;6.458;2023-08-17T06:36:30;15.93;;;10.60;;
38222;SDS011;24024;51.186;6.458;2023-08-17T06:38:58;13.25;;;10.02;;
38222;SDS011;24024;51.186;6.458;2023-08-17T06:41:25;16.55;;;11.05;;
38222;SDS011;24024;51.186;6.458;2023-08-17T06:43:52;13.63;;;10.15;;
38222;SDS011;24024;51.186;6.458;2023-08-17T06:46:19;14.70;;;10.52;;
38222;SDS011;24024;51.186;6.458;2023-08-17T06:48:48;16.90;;;9.95;;
38222;SDS011;24024;51.186;6.458;2023-08-17T06:51:15;12.23;;;8.95;;
38222;SDS011;24024;51.186;6.458;2023-08-17T06:53:44;13.80;;;9.25;;
38222;SDS011;24024;51.186;6.458;2023-08-17T06:56:11;16.23;;;9.73;;
38222;SDS011;24024;51.186;6.458;2023-08-17T06:58:38;13.73;;;9.07;;
38222;SDS011;24024;51.186;6.458;2023-08-17T07:01:05;15.57;;;9.68;;
38222;SDS011;24024;51.186;6.458;2023-08-17T07:03:31;12.95;;;9.43;;
38222;SDS011;24024;51.186;6.458;2023-08-17T07:06:02;17.98;;;9.95;;
38222;SDS011;24024;51.186;6.458;2023-08-17T07:08:28;17.27;;;10.00;;
38222;SDS011;24024;51.186;6.458;2023-08-17T07:10:55;16.80;;;10.55;;
38222;SDS011;24024;51.186;6.458;2023-08-17T07:13:27;17.55;;;11.18;;
38222;SDS011;24024;51.186;6.458;2023-08-17T07:15:56;19.38;;;11.70;;
38222;SDS011;24024;51.186;6.458;2023-08-17T07:18:25;17.83;;;13.40;;
38222;SDS011;24024;51.186;6.458;2023-08-17T07:20:54;21.02;;;13.77;;
38222;SDS011;24024;51.186;6.458;2023-08-17T07:23:24;21.38;;;14.00;;
38222;SDS011;24024;51.186;6.458;2023-08-17T07:25:51;18.52;;;13.10;;
38222;SDS011;24024;51.186;6.458;2023-08-17T07:28:18;17.67;;;13.88;;
38222;SDS011;24024;51.186;6.458;2023-08-17T07:30:44;21.63;;;15.40;;
38222;SDS011;24024;51.186;6.458;2023-08-17T07:33:11;19.40;;;15.68;;
38222;SDS011;24024;51.186;6.458;2023-08-17T07:35:38;21.38;;;15.05;;
38222;SDS011;24024;51.186;6.458;2023-08-17T07:38:07;19.98;;;15.65;;
38222;SDS011;24024;51.186;6.458;2023-08-17T07:40:35;24.73;;;18.65;;
38222;SDS011;24024;51.186;6.458;2023-08-17T07:43:02;23.70;;;18.95;;
38222;SDS011;24024;51.186;6.458;2023-08-17T07:45:31;22.75;;;16.48;;
38222;SDS011;24024;51.186;6.458;2023-08-17T07:48:00;22.15;;;15.95;;
38222;SDS011;24024;51.186;6.458;2023-08-17T07:50:27;22.27;;;15.52;;
38222;SDS011;24024;51.186;6.458;2023-08-17T07:52:53;22.50;;;15.73;;
38222;SDS011;24024;51.186;6.458;2023-08-17T07:55:23;26.73;;;16.48;;
38222;SDS011;24024;51.186;6.458;2023-08-17T07:57:50;23.63;;;17.45;;
38222;SDS011;24024;51.186;6.458;2023-08-17T08:00:20;25.25;;;18.55;;
38222;SDS011;24024;51.186;6.458;2023-08-17T08:02:46;27.65;;;18.95;;
38222;SDS011;24024;51.186;6.458;2023-08-17T08:05:15;25.75;;;18.25;;
38222;SDS011;24024;51.186;6.458;2023-08-17T08:07:45;27.88;;;19.13;;
38222;SDS011;24024;51.186;6.458;2023-08-17T08:10:14;29.25;;;17.73;;
38222;SDS011;24024;51.186;6.458;2023-08-17T08:12:41;25.65;;;16.65;;
38222;SDS011;24024;51.186;6.458;2023-08-17T08:15:07;22.63;;;16.60;;
38222;SDS011;24024;51.186;6.458;2023-08-17T08:17:37;21.70;;;16.88;;
38222;SDS011;24024;51.186;6.458;2023-08-17T08:20:04;26.35;;;18.15;;
38222;SDS011;24024;51.186;6.458;2023-08-17T08:22:31;22.52;;;16.55;;
38222;SDS011;24024;51.186;6.458;2023-08-17T08:24:58;25.48;;;18.67;;
38222;SDS011;24024;51.186;6.458;2023-08-17T08:27:25;27.35;;;20.50;;
38222;SDS011;24024;51.186;6.458;2023-08-17T08:29:53;30.77;;;21.15;;
38222;SDS011;24024;51.186;6.458;2023-08-17T08:32:20;28.65;;;22.08;;
38222;SDS011;24024;51.186;6.458;2023-08-17T08:34:47;28.48;;;21.77;;
38222;SDS011;24024;51.186;6.458;2023-08-17T08:37:14;34.20;;;23.83;;
38222;SDS011;24024;51.186;6.458;2023-08-17T08:39:55;31.45;;;23.10;;
38222;SDS011;24024;51.186;6.458;2023-08-17T08:42:22;31.05;;;22.25;;
38222;SDS011;24024;51.186;6.458;2023-08-17T08:44:50;28.63;;;20.90;;
38222;SDS011;24024;51.186;6.458;2023-08-17T08:47:20;23.98;;;19.77;;
38222;SDS011;24024;51.186;6.458;2023-08-17T08:50:00;27.67;;;21.38;;
38222;SDS011;24024;51.186;6.458;2023-08-17T08:52:32;28.30;;;21.80;;
38222;SDS011;24024;51.186;6.458;2023-08-17T08:57:37;29.50;;;21.08;;
38222;SDS011;24024;51.186;6.458;2023-08-17T09:00:05;31.50;;;23.73;;
38222;SDS011;24024;51.186;6.458;2023-08-17T09:02:37;29.73;;;22.98;;
38222;SDS011;24024;51.186;6.458;2023-08-17T09:05:05;29.40;;;22.73;;
38222;SDS011;24024;51.186;6.458;2023-08-17T09:07:34;28.58;;;23.35;;
38222;SDS011;24024;51.186;6.458;2023-08-17T09:10:05;36.35;;;24.88;;
38222;SDS011;24024;51.186;6.458;2023-08-17T09:12:35;32.50;;;24.65;;
38222;SDS011;24024;51.186;6.458;2023-08-17T09:15:07;30.92;;;24.17;;
38222;SDS011;24024;51.186;6.458;2023-08-17T09:17:34;29.63;;;23.73;;
38222;SDS011;24024;51.186;6.458;2023-08-17T09:20:04;32.00;;;23.58;;
38222;SDS011;24024;51.186;6.458;2023-08-17T09:22:40;33.28;;;24.92;;
38222;SDS011;24024;51.186;6.458;2023-08-17T09:25:08;30.50;;;25.65;;
38222;SDS011;24024;51.186;6.458;2023-08-17T09:27:36;33.97;;;25.73;;
38222;SDS011;24024;51.186;6.458;2023-08-17T09:30:08;33.95;;;27.02;;
38222;SDS011;24024;51.186;6.458;2023-08-17T09:32:36;37.37;;;28.80;;
38222;SDS011;24024;51.186;6.458;2023-08-17T09:35:03;33.92;;;27.65;;
38222;SDS011;24024;51.186;6.458;2023-08-17T09:37:42;36.55;;;27.98;;
38222;SDS011;24024;51.186;6.458;2023-08-17T09:40:09;33.50;;;27.08;;
38222;SDS011;24024;51.186;6.458;2023-08-17T09:42:36;32.92;;;27.25;;
38222;SDS011;24024;51.186;6.458;2023-08-17T09:45:07;31.25;;;26.13;;
38222;SDS011;24024;51.186;6.458;2023-08-17T09:47:36;34.13;;;26.25;;
38222;SDS011;24024;51.186;6.458;2023-08-17T09:50:05;35.25;;;26.75;;
38222;SDS011;24024;51.186;6.458;2023-08-17T09:52:38;34.72;;;25.33;;
38222;SDS011;24024;51.186;6.458;2023-08-17T09:55:07;30.52;;;23.83;;
38222;SDS011;24024;51.186;6.458;2023-08-17T09:57:37;33.60;;;24.40;;
38222;SDS011;24024;51.186;6.458;2023-08-17T10:00:06;29.95;;;22.58;;
38222;SDS011;24024;51.186;6.458;2023-08-17T10:02:33;32.47;;;23.85;;
38222;SDS011;24024;51.186;6.458;2023-08-17T10:05:03;30.52;;;21.55;;
38222;SDS011;24024;51.186;6.458;2023-08-17T10:07:34;30.47;;;21.77;;
38222;SDS011;24024;51.186;6.458;2023-08-17T10:10:05;32.00;;;22.88;;
38222;SDS011;24024;51.186;6.458;2023-08-17T10:12:37;33.30;;;22.17;;
38222;SDS011;24024;51.186;6.458;2023-08-17T10:15:10;30.23;;;21.92;;
38222;SDS011;24024;51.186;6.458;2023-08-17T10:20:34;33.92;;;23.45;;
38222;SDS011;24024;51.186;6.458;2023-08-17T10:23:14;31.58;;;24.00;;
38222;SDS011;24024;51.186;6.458;2023-08-17T10:25:46;38.05;;;26.73;;
38222;SDS011;24024;51.186;6.458;2023-08-17T10:28:17;36.08;;;24.27;;
38222;SDS011;24024;51.186;6.458;2023-08-17T10:30:45;36.00;;;24.00;;
38222;SDS011;24024;51.186;6.458;2023-08-17T10:33:12;34.92;;;25.52;;
38222;SDS011;24024;51.186;6.458;2023-08-17T10:35:41;38.22;;;25.15;;
38222;SDS011;24024;51.186;6.458;2023-08-17T10:38:09;37.50;;;26.08;;
38222;SDS011;24024;51.186;6.458;2023-08-17T10:40:37;37.10;;;27.05;;
38222;SDS011;24024;51.186;6.458;2023-08-17T10:43:08;37.53;;;27.38;;
38222;SDS011;24024;51.186;6.458;2023-08-17T10:45:35;38.97;;;26.75;;
38222;SDS011;24024;51.186;6.458;2023-08-17T10:50:35;36.63;;;26.25;;
38222;SDS011;24024;51.186;6.458;2023-08-17T10:53:09;35.95;;;25.95;;
38222;SDS011;24024;51.186;6.458;2023-08-17T10:55:39;38.25;;;25.80;;
38222;SDS011;24024;51.186;6.458;2023-08-17T10:58:10;34.15;;;25.08;;
38222;SDS011;24024;51.186;6.458;2023-08-17T11:00:41;32.10;;;23.65;;
38222;SDS011;24024;51.186;6.458;2023-08-17T11:03:20;33.58;;;24.23;;
38222;SDS011;24024;51.186;6.458;2023-08-17T11:05:55;35.83;;;24.73;;
38222;SDS011;24024;51.186;6.458;2023-08-17T11:08:32;38.45;;;24.05;;
38222;SDS011;24024;51.186;6.458;2023-08-17T11:13:41;33.72;;;23.90;;
38222;SDS011;24024;51.186;6.458;2023-08-17T11:16:14;32.78;;;22.88;;
38222;SDS011;24024;51.186;6.458;2023-08-17T11:18:44;34.38;;;23.85;;
38222;SDS011;24024;51.186;6.458;2023-08-17T11:21:12;31.92;;;23.45;;
38222;SDS011;24024;51.186;6.458;2023-08-17T11:23:45;33.30;;;23.17;;
38222;SDS011;24024;51.186;6.458;2023-08-17T11:26:18;33.60;;;23.80;;
38222;SDS011;24024;51.186;6.458;2023-08-17T11:28:45;31.83;;;22.60;;
38222;SDS011;24024;51.186;6.458;2023-08-17T11:31:13;35.50;;;27.02;;
38222;SDS011;24024;51.186;6.458;2023-08-17T11:33:42;33.08;;;24.92;;
38222;SDS011;24024;51.186;6.458;2023-08-17T11:36:13;31.02;;;24.08;;
38222;SDS011;24024;51.186;6.458;2023-08-17T11:38:42;31.80;;;23.80;;
38222;SDS011;24024;51.186;6.458;2023-08-17T11:41:10;36.05;;;25.70;;
38222;SDS011;24024;51.186;6.458;2023-08-17T11:43:44;36.00;;;25.60;;
38222;SDS011;24024;51.186;6.458;2023-08-17T11:46:15;33.80;;;24.58;;
38222;SDS011;24024;51.186;6.458;2023-08-17T11:48:42;34.15;;;24.23;;
38222;SDS011;24024;51.186;6.458;2023-08-17T11:51:12;32.65;;;23.98;;
38222;SDS011;24024;51.186;6.458;2023-08-17T11:53:40;34.03;;;22.83;;
38222;SDS011;24024;51.186;6.458;2023-08-17T11:56:07;28.13;;;20.05;;
38222;SDS011;24024;51.186;6.458;2023-08-17T11:58:40;32.08;;;21.88;;
38222;SDS011;24024;51.186;6.458;2023-08-17T12:01:12;25.38;;;19.20;;
38222;SDS011;24024;51.186;6.458;2023-08-17T12:03:42;26.75;;;19.90;;
38222;SDS011;24024;51.186;6.458;2023-08-17T12:06:12;28.67;;;21.25;;
38222;SDS011;24024;51.186;6.458;2023-08-17T12:08:42;23.95;;;18.15;;
38222;SDS011;24024;51.186;6.458;2023-08-17T12:11:13;27.73;;;19.40;;
38222;SDS011;24024;51.186;6.458;2023-08-17T12:13:39;28.13;;;20.08;;
38222;SDS011;24024;51.186;6.458;2023-08-17T12:16:06;25.63;;;18.73;;
38222;SDS011;24024;51.186;6.458;2023-08-17T12:18:43;31.00;;;20.17;;
38222;SDS011;24024;51.186;6.458;2023-08-17T12:21:16;29.17;;;21.05;;
38222;SDS011;24024;51.186;6.458;2023-08-17T12:26:19;24.83;;;18.92;;
38222;SDS011;24024;51.186;6.458;2023-08-17T12:28:49;25.25;;;17.55;;
38222;SDS011;24024;51.186;6.458;2023-08-17T12:31:22;24.13;;;17.10;;
38222;SDS011;24024;51.186;6.458;2023-08-17T12:33:50;21.23;;;15.02;;
38222;SDS011;24024;51.186;6.458;2023-08-17T12:36:19;24.20;;;17.30;;
38222;SDS011;24024;51.186;6.458;2023-08-17T12:38:47;24.98;;;17.42;;
38222;SDS011;24024;51.186;6.458;2023-08-17T12:41:14;22.70;;;17.10;;
38222;SDS011;24024;51.186;6.458;2023-08-17T12:43:44;20.25;;;15.05;;
38222;SDS011;24024;51.186;6.458;2023-08-17T12:46:11;21.25;;;15.75;;
38222;SDS011;24024;51.186;6.458;2023-08-17T12:48:40;20.60;;;15.43;;
38222;SDS011;24024;51.186;6.458;2023-08-17T12:51:06;21.42;;;15.55;;
38222;SDS011;24024;51.186;6.458;2023-08-17T12:53:33;23.33;;;15.82;;
38222;SDS011;24024;51.186;6.458;2023-08-17T12:56:03;21.55;;;15.05;;
38222;SDS011;24024;51.186;6.458;2023-08-17T12:58:32;22.15;;;15.80;;
38222;SDS011;24024;51.186;6.458;2023-08-17T13:00:59;20.23;;;14.40;;
38222;SDS011;24024;51.186;6.458;2023-08-17T13:03:28;19.35;;;15.13;;
38222;SDS011;24024;51.186;6.458;2023-08-17T13:05:55;21.63;;;14.88;;
38222;SDS011;24024;51.186;6.458;2023-08-17T13:08:22;19.30;;;14.80;;
38222;SDS011;24024;51.186;6.458;2023-08-17T13:10:49;20.73;;;15.75;;
38222;SDS011;24024;51.186;6.458;2023-08-17T13:13:20;18.90;;;13.33;;
38222;SDS011;24024;51.186;6.458;2023-08-17T13:15:47;18.13;;;13.98;;
38222;SDS011;24024;51.186;6.458;2023-08-17T13:18:14;18.95;;;14.50;;
38222;SDS011;24024;51.186;6.458;2023-08-17T13:20:43;18.33;;;14.25;;
38222;SDS011;24024;51.186;6.458;2023-08-17T13:23:15;15.38;;;12.48;;
38222;SDS011;24024;51.186;6.458;2023-08-17T13:25:41;18.33;;;13.00;;
38222;SDS011;24024;51.186;6.458;2023-08-17T13:28:08;21.50;;;14.80;;
38222;SDS011;24024;51.186;6.458;2023-08-17T13:30:35;17.85;;;14.57;;
38222;SDS011;24024;51.186;6.458;2023-08-17T13:33:03;19.60;;;14.57;;
38222;SDS011;24024;51.186;6.458;2023-08-17T13:35:33;17.52;;;13.95;;
38222;SDS011;24024;51.186;6.458;2023-08-17T13:38:00;18.13;;;14.02;;
38222;SDS011;24024;51.186;6.458;2023-08-17T13:40:30;17.35;;;13.95;;
38222;SDS011;24024;51.186;6.458;2023-08-17T13:42:58;18.77;;;13.70;;
38222;SDS011;24024;51.186;6.458;2023-08-17T13:45:26;21.77;;;16.40;;
38222;SDS011;24024;51.186;6.458;2023-08-17T13:47:55;20.35;;;15.30;;
38222;SDS011;24024;51.186;6.458;2023-08-17T13:50:24;18.85;;;15.95;;
38222;SDS011;24024;51.186;6.458;2023-08-17T13:52:51;24.45;;;19.25;;
38222;SDS011;24024;51.186;6.458;2023-08-17T13:55:17;23.63;;;18.42;;
38222;SDS011;24024;51.186;6.458;2023-08-17T13:57:44;23.30;;;18.65;;
38222;SDS011;24024;51.186;6.458;2023-08-17T14:00:11;23.10;;;18.83;;
38222;SDS011;24024;51.186;6.458;2023-08-17T14:02:39;23.17;;;18.45;;
38222;SDS011;24024;51.186;6.458;2023-08-17T14:05:06;20.98;;;17.10;;
38222;SDS011;24024;51.186;6.458;2023-08-17T14:07:35;20.73;;;16.52;;
38222;SDS011;24024;51.186;6.458;2023-08-17T14:10:02;24.83;;;16.52;;
38222;SDS011;24024;51.186;6.458;2023-08-17T14:12:39;17.85;;;15.20;;
38222;SDS011;24024;51.186;6.458;2023-08-17T14:15:06;20.88;;;15.93;;
38222;SDS011;24024;51.186;6.458;2023-08-17T14:17:33;23.45;;;16.00;;
38222;SDS011;24024;51.186;6.458;2023-08-17T14:20:03;19.25;;;15.10;;
38222;SDS011;24024;51.186;6.458;2023-08-17T14:22:32;19.73;;;15.52;;
38222;SDS011;24024;51.186;6.458;2023-08-17T14:25:01;22.85;;;14.75;;
38222;SDS011;24024;51.186;6.458;2023-08-17T14:27:29;17.92;;;14.15;;
38222;SDS011;24024;51.186;6.458;2023-08-17T14:29:56;19.40;;;15.52;;
38222;SDS011;24024;51.186;6.458;2023-08-17T14:32:23;17.30;;;13.95;;
38222;SDS011;24024;51.186;6.458;2023-08-17T14:34:52;17.58;;;12.32;;
38222;SDS011;24024;51.186;6.458;2023-08-17T14:37:21;18.42;;;14.35;;
38222;SDS011;24024;51.186;6.458;2023-08-17T14:39:50;20.77;;;15.30;;
38222;SDS011;24024;51.186;6.458;2023-08-17T14:42:20;20.10;;;17.55;;
38222;SDS011;24024;51.186;6.458;2023-08-17T14:44:46;24.88;;;18.75;;
38222;SDS011;24024;51.186;6.458;2023-08-17T14:47:13;24.20;;;19.45;;
38222;SDS011;24024;51.186;6.458;2023-08-17T14:49:48;27.25;;;21.58;;
38222;SDS011;24024;51.186;6.458;2023-08-17T14:52:15;30.42;;;24.92;;
38222;SDS011;24024;51.186;6.458;2023-08-17T14:54:41;32.28;;;26.35;;